Terminal Aerodrome Forecast
Issued by NWS Cleveland, OH

Home | Current Version | Previous Version | Graphics & Text | Print | Product List | Glossary On
Versions: 1 2 3 4 5 6 7 8 9 10 11 12 13 14 15 16 17 18 19 20 21 22 23 24 25 26 27 28 29 30 31 32 33 34 35 36 37
000
FTUS41 KCLE 200400 AAA
TAFYNG
TAF AMD
KYNG 200426Z 2004/2024 VRB04KT 6SM BR OVC050
      TEMPO 2004/2006 4SM -TSRA BKN025CB OVC050
     FM200600 20006KT 4SM BR BKN035
      TEMPO 2010/2013 2SM BR
     FM201500 22008KT P6SM BKN050
     FM201900 23008KT P6SM VCSH OVC035=

USA.gov is the U.S. government's official web portal to all federal, state and local government web resources and services.